sensor_id;sensor_type;location;lat;lon;timestamp;P1;durP1;ratioP1;P2;durP2;ratioP2
75628;SDS011;64213;46.452;16.994;2022-12-11T00:01:49;27.30;;;11.30;;
75628;SDS011;64213;46.452;16.994;2022-12-11T00:04:51;16.13;;;5.43;;
75628;SDS011;64213;46.452;16.994;2022-12-11T00:07:53;25.33;;;9.27;;
75628;SDS011;64213;46.452;16.994;2022-12-11T00:10:56;21.33;;;6.80;;
75628;SDS011;64213;46.452;16.994;2022-12-11T00:13:58;19.40;;;6.50;;
75628;SDS011;64213;46.452;16.994;2022-12-11T00:17:00;23.55;;;9.38;;
75628;SDS011;64213;46.452;16.994;2022-12-11T00:20:03;23.47;;;10.13;;
75628;SDS011;64213;46.452;16.994;2022-12-11T00:23:06;17.07;;;7.17;;
75628;SDS011;64213;46.452;16.994;2022-12-11T00:26:09;19.75;;;7.28;;
75628;SDS011;64213;46.452;16.994;2022-12-11T00:29:16;23.02;;;8.43;;
75628;SDS011;64213;46.452;16.994;2022-12-11T00:32:18;22.40;;;10.18;;
75628;SDS011;64213;46.452;16.994;2022-12-11T00:35:20;15.13;;;5.20;;
75628;SDS011;64213;46.452;16.994;2022-12-11T00:38:22;27.23;;;10.80;;
75628;SDS011;64213;46.452;16.994;2022-12-11T00:41:25;18.52;;;7.57;;
75628;SDS011;64213;46.452;16.994;2022-12-11T00:44:27;22.92;;;8.98;;
75628;SDS011;64213;46.452;16.994;2022-12-11T00:47:29;26.73;;;8.07;;
75628;SDS011;64213;46.452;16.994;2022-12-11T00:50:32;25.20;;;9.33;;
75628;SDS011;64213;46.452;16.994;2022-12-11T00:53:34;16.00;;;5.10;;
75628;SDS011;64213;46.452;16.994;2022-12-11T00:56:37;19.12;;;7.05;;
75628;SDS011;64213;46.452;16.994;2022-12-11T00:59:40;22.75;;;7.25;;
75628;SDS011;64213;46.452;16.994;2022-12-11T01:02:42;17.05;;;6.60;;
75628;SDS011;64213;46.452;16.994;2022-12-11T01:05:51;22.50;;;8.13;;
75628;SDS011;64213;46.452;16.994;2022-12-11T01:08:55;15.53;;;6.53;;
75628;SDS011;64213;46.452;16.994;2022-12-11T01:12:15;21.33;;;7.45;;
75628;SDS011;64213;46.452;16.994;2022-12-11T01:15:18;18.15;;;6.47;;
75628;SDS011;64213;46.452;16.994;2022-12-11T01:18:21;17.48;;;6.00;;
75628;SDS011;64213;46.452;16.994;2022-12-11T01:21:24;20.37;;;8.33;;
75628;SDS011;64213;46.452;16.994;2022-12-11T01:24:26;18.27;;;6.37;;
75628;SDS011;64213;46.452;16.994;2022-12-11T01:27:28;15.52;;;5.15;;
75628;SDS011;64213;46.452;16.994;2022-12-11T01:30:31;17.15;;;5.15;;
75628;SDS011;64213;46.452;16.994;2022-12-11T01:33:33;17.10;;;5.47;;
75628;SDS011;64213;46.452;16.994;2022-12-11T01:36:35;14.50;;;5.40;;
75628;SDS011;64213;46.452;16.994;2022-12-11T01:39:37;9.70;;;3.63;;
75628;SDS011;64213;46.452;16.994;2022-12-11T01:42:40;16.40;;;5.15;;
75628;SDS011;64213;46.452;16.994;2022-12-11T01:45:42;18.02;;;7.30;;
75628;SDS011;64213;46.452;16.994;2022-12-11T01:48:46;14.85;;;5.40;;
75628;SDS011;64213;46.452;16.994;2022-12-11T01:51:54;14.40;;;4.83;;
75628;SDS011;64213;46.452;16.994;2022-12-11T01:54:58;12.87;;;3.83;;
75628;SDS011;64213;46.452;16.994;2022-12-11T01:58:00;14.13;;;4.40;;
75628;SDS011;64213;46.452;16.994;2022-12-11T02:01:03;14.85;;;4.47;;
75628;SDS011;64213;46.452;16.994;2022-12-11T02:04:06;15.27;;;4.25;;
75628;SDS011;64213;46.452;16.994;2022-12-11T02:07:10;11.30;;;3.63;;
75628;SDS011;64213;46.452;16.994;2022-12-11T02:10:12;11.23;;;4.27;;
75628;SDS011;64213;46.452;16.994;2022-12-11T02:13:17;11.25;;;3.67;;
75628;SDS011;64213;46.452;16.994;2022-12-11T02:16:40;17.17;;;5.22;;
75628;SDS011;64213;46.452;16.994;2022-12-11T02:19:58;11.57;;;4.43;;
75628;SDS011;64213;46.452;16.994;2022-12-11T02:30:07;12.63;;;4.30;;
75628;SDS011;64213;46.452;16.994;2022-12-11T02:33:11;16.70;;;6.68;;
75628;SDS011;64213;46.452;16.994;2022-12-11T02:36:16;11.57;;;3.92;;
75628;SDS011;64213;46.452;16.994;2022-12-11T02:39:21;13.13;;;5.47;;
75628;SDS011;64213;46.452;16.994;2022-12-11T02:42:28;15.67;;;4.40;;
75628;SDS011;64213;46.452;16.994;2022-12-11T02:45:33;13.05;;;4.00;;
75628;SDS011;64213;46.452;16.994;2022-12-11T02:48:36;15.90;;;4.95;;
75628;SDS011;64213;46.452;16.994;2022-12-11T02:51:41;16.87;;;4.90;;
75628;SDS011;64213;46.452;16.994;2022-12-11T02:54:44;16.70;;;6.60;;
75628;SDS011;64213;46.452;16.994;2022-12-11T02:57:59;12.27;;;4.03;;
75628;SDS011;64213;46.452;16.994;2022-12-11T03:01:04;16.58;;;5.82;;
75628;SDS011;64213;46.452;16.994;2022-12-11T03:04:07;11.30;;;4.03;;
75628;SDS011;64213;46.452;16.994;2022-12-11T03:07:13;12.48;;;4.07;;
75628;SDS011;64213;46.452;16.994;2022-12-11T03:10:18;11.00;;;3.83;;
75628;SDS011;64213;46.452;16.994;2022-12-11T03:13:20;13.73;;;5.00;;
75628;SDS011;64213;46.452;16.994;2022-12-11T03:16:33;10.32;;;3.25;;
75628;SDS011;64213;46.452;16.994;2022-12-11T03:19:44;13.18;;;4.47;;
75628;SDS011;64213;46.452;16.994;2022-12-11T03:22:56;15.55;;;4.30;;
75628;SDS011;64213;46.452;16.994;2022-12-11T03:26:10;13.57;;;4.93;;
75628;SDS011;64213;46.452;16.994;2022-12-11T03:29:22;12.27;;;3.00;;
75628;SDS011;64213;46.452;16.994;2022-12-11T03:32:35;15.40;;;4.82;;
75628;SDS011;64213;46.452;16.994;2022-12-11T03:35:44;12.75;;;3.25;;
75628;SDS011;64213;46.452;16.994;2022-12-11T03:38:53;15.93;;;6.10;;
75628;SDS011;64213;46.452;16.994;2022-12-11T03:42:03;12.43;;;4.30;;
75628;SDS011;64213;46.452;16.994;2022-12-11T03:45:08;14.43;;;4.13;;
75628;SDS011;64213;46.452;16.994;2022-12-11T03:48:12;13.55;;;3.97;;
75628;SDS011;64213;46.452;16.994;2022-12-11T03:51:16;12.30;;;4.15;;
75628;SDS011;64213;46.452;16.994;2022-12-11T03:54:19;16.55;;;5.65;;
75628;SDS011;64213;46.452;16.994;2022-12-11T03:57:22;15.20;;;4.67;;
75628;SDS011;64213;46.452;16.994;2022-12-11T04:00:26;8.47;;;2.80;;
75628;SDS011;64213;46.452;16.994;2022-12-11T04:03:29;15.07;;;5.20;;
75628;SDS011;64213;46.452;16.994;2022-12-11T04:06:31;11.45;;;3.60;;
75628;SDS011;64213;46.452;16.994;2022-12-11T04:09:34;9.20;;;3.05;;
75628;SDS011;64213;46.452;16.994;2022-12-11T04:12:36;9.73;;;1.90;;
75628;SDS011;64213;46.452;16.994;2022-12-11T04:15:38;14.50;;;5.07;;
75628;SDS011;64213;46.452;16.994;2022-12-11T04:18:41;10.65;;;3.00;;
75628;SDS011;64213;46.452;16.994;2022-12-11T04:22:02;10.52;;;3.37;;
75628;SDS011;64213;46.452;16.994;2022-12-11T04:25:23;12.45;;;4.00;;
75628;SDS011;64213;46.452;16.994;2022-12-11T04:28:25;11.93;;;3.37;;
75628;SDS011;64213;46.452;16.994;2022-12-11T04:31:27;9.83;;;3.13;;
75628;SDS011;64213;46.452;16.994;2022-12-11T04:34:30;10.93;;;2.47;;
75628;SDS011;64213;46.452;16.994;2022-12-11T04:37:32;8.30;;;2.00;;
75628;SDS011;64213;46.452;16.994;2022-12-11T04:40:36;15.55;;;3.58;;
75628;SDS011;64213;46.452;16.994;2022-12-11T04:43:38;9.33;;;2.17;;
75628;SDS011;64213;46.452;16.994;2022-12-11T04:46:41;14.80;;;4.27;;
75628;SDS011;64213;46.452;16.994;2022-12-11T04:49:43;8.50;;;2.60;;
75628;SDS011;64213;46.452;16.994;2022-12-11T04:52:45;16.20;;;5.20;;
75628;SDS011;64213;46.452;16.994;2022-12-11T04:55:47;11.07;;;3.85;;
75628;SDS011;64213;46.452;16.994;2022-12-11T04:58:49;9.93;;;3.20;;
75628;SDS011;64213;46.452;16.994;2022-12-11T05:01:51;11.03;;;4.00;;
75628;SDS011;64213;46.452;16.994;2022-12-11T05:04:53;9.10;;;2.72;;
75628;SDS011;64213;46.452;16.994;2022-12-11T05:07:55;7.12;;;2.40;;
75628;SDS011;64213;46.452;16.994;2022-12-11T05:10:58;7.65;;;2.08;;
75628;SDS011;64213;46.452;16.994;2022-12-11T05:14:02;11.30;;;3.80;;
75628;SDS011;64213;46.452;16.994;2022-12-11T05:17:04;7.67;;;2.43;;
75628;SDS011;64213;46.452;16.994;2022-12-11T05:20:06;7.55;;;2.12;;
75628;SDS011;64213;46.452;16.994;2022-12-11T05:23:10;6.57;;;2.00;;
75628;SDS011;64213;46.452;16.994;2022-12-11T05:26:13;9.15;;;2.37;;
75628;SDS011;64213;46.452;16.994;2022-12-11T05:29:18;10.33;;;2.77;;
75628;SDS011;64213;46.452;16.994;2022-12-11T05:32:20;5.13;;;1.30;;
75628;SDS011;64213;46.452;16.994;2022-12-11T05:35:22;11.80;;;3.58;;
75628;SDS011;64213;46.452;16.994;2022-12-11T05:38:24;8.40;;;2.25;;
75628;SDS011;64213;46.452;16.994;2022-12-11T05:41:27;7.95;;;2.35;;
75628;SDS011;64213;46.452;16.994;2022-12-11T05:44:31;9.57;;;2.63;;
75628;SDS011;64213;46.452;16.994;2022-12-11T05:47:33;8.23;;;2.50;;
75628;SDS011;64213;46.452;16.994;2022-12-11T05:50:35;5.65;;;1.77;;
75628;SDS011;64213;46.452;16.994;2022-12-11T05:53:37;7.75;;;1.70;;
75628;SDS011;64213;46.452;16.994;2022-12-11T05:56:40;8.50;;;2.17;;
75628;SDS011;64213;46.452;16.994;2022-12-11T05:59:43;5.43;;;1.40;;
75628;SDS011;64213;46.452;16.994;2022-12-11T06:02:45;7.77;;;2.43;;
75628;SDS011;64213;46.452;16.994;2022-12-11T06:05:48;8.27;;;2.22;;
75628;SDS011;64213;46.452;16.994;2022-12-11T06:08:50;6.62;;;1.70;;
75628;SDS011;64213;46.452;16.994;2022-12-11T06:11:54;7.95;;;2.20;;
75628;SDS011;64213;46.452;16.994;2022-12-11T06:14:56;9.70;;;2.70;;
75628;SDS011;64213;46.452;16.994;2022-12-11T06:17:58;6.93;;;1.80;;
75628;SDS011;64213;46.452;16.994;2022-12-11T06:21:01;6.68;;;1.60;;
75628;SDS011;64213;46.452;16.994;2022-12-11T06:24:03;8.75;;;2.03;;
75628;SDS011;64213;46.452;16.994;2022-12-11T06:27:06;7.00;;;1.73;;
75628;SDS011;64213;46.452;16.994;2022-12-11T06:30:08;5.93;;;1.60;;
75628;SDS011;64213;46.452;16.994;2022-12-11T06:33:11;8.83;;;2.27;;
75628;SDS011;64213;46.452;16.994;2022-12-11T06:36:15;8.55;;;2.10;;
75628;SDS011;64213;46.452;16.994;2022-12-11T06:39:18;8.07;;;1.70;;
75628;SDS011;64213;46.452;16.994;2022-12-11T06:42:21;5.30;;;1.20;;
75628;SDS011;64213;46.452;16.994;2022-12-11T06:45:23;6.17;;;1.47;;
75628;SDS011;64213;46.452;16.994;2022-12-11T06:48:25;6.43;;;1.53;;
75628;SDS011;64213;46.452;16.994;2022-12-11T06:51:27;4.68;;;1.05;;
75628;SDS011;64213;46.452;16.994;2022-12-11T06:54:29;6.57;;;1.33;;
75628;SDS011;64213;46.452;16.994;2022-12-11T06:57:32;5.37;;;1.33;;
75628;SDS011;64213;46.452;16.994;2022-12-11T07:00:35;7.80;;;2.00;;
75628;SDS011;64213;46.452;16.994;2022-12-11T07:03:38;6.83;;;1.50;;
75628;SDS011;64213;46.452;16.994;2022-12-11T07:06:40;5.28;;;1.30;;
75628;SDS011;64213;46.452;16.994;2022-12-11T07:09:43;6.68;;;1.35;;
75628;SDS011;64213;46.452;16.994;2022-12-11T07:12:45;6.00;;;1.33;;
75628;SDS011;64213;46.452;16.994;2022-12-11T07:15:47;8.33;;;1.87;;
75628;SDS011;64213;46.452;16.994;2022-12-11T07:18:49;7.47;;;1.63;;
75628;SDS011;64213;46.452;16.994;2022-12-11T07:21:52;5.37;;;1.20;;
75628;SDS011;64213;46.452;16.994;2022-12-11T07:24:54;5.85;;;1.12;;
75628;SDS011;64213;46.452;16.994;2022-12-11T07:27:56;6.85;;;1.85;;
75628;SDS011;64213;46.452;16.994;2022-12-11T07:30:58;5.13;;;1.20;;
75628;SDS011;64213;46.452;16.994;2022-12-11T07:34:02;8.40;;;2.50;;
75628;SDS011;64213;46.452;16.994;2022-12-11T07:37:06;9.32;;;2.08;;
75628;SDS011;64213;46.452;16.994;2022-12-11T07:40:08;8.20;;;1.50;;
75628;SDS011;64213;46.452;16.994;2022-12-11T07:43:11;5.90;;;1.20;;
75628;SDS011;64213;46.452;16.994;2022-12-11T07:46:18;11.03;;;2.53;;
75628;SDS011;64213;46.452;16.994;2022-12-11T07:49:23;6.07;;;1.60;;
75628;SDS011;64213;46.452;16.994;2022-12-11T07:52:25;9.38;;;2.60;;
75628;SDS011;64213;46.452;16.994;2022-12-11T07:55:27;9.05;;;2.58;;
75628;SDS011;64213;46.452;16.994;2022-12-11T07:58:29;6.60;;;1.62;;
75628;SDS011;64213;46.452;16.994;2022-12-11T08:01:32;6.33;;;1.47;;
75628;SDS011;64213;46.452;16.994;2022-12-11T08:04:39;7.50;;;2.73;;
75628;SDS011;64213;46.452;16.994;2022-12-11T08:07:41;7.03;;;1.90;;
75628;SDS011;64213;46.452;16.994;2022-12-11T08:10:43;8.43;;;1.95;;
75628;SDS011;64213;46.452;16.994;2022-12-11T08:13:46;5.70;;;1.33;;
75628;SDS011;64213;46.452;16.994;2022-12-11T08:16:48;5.03;;;1.30;;
75628;SDS011;64213;46.452;16.994;2022-12-11T08:19:50;8.27;;;2.00;;
75628;SDS011;64213;46.452;16.994;2022-12-11T08:22:52;8.00;;;1.95;;
75628;SDS011;64213;46.452;16.994;2022-12-11T08:26:03;6.97;;;2.03;;
75628;SDS011;64213;46.452;16.994;2022-12-11T08:29:06;6.03;;;1.50;;
75628;SDS011;64213;46.452;16.994;2022-12-11T08:32:08;7.80;;;2.47;;
75628;SDS011;64213;46.452;16.994;2022-12-11T08:35:13;8.70;;;2.10;;
75628;SDS011;64213;46.452;16.994;2022-12-11T08:38:15;8.77;;;2.10;;
75628;SDS011;64213;46.452;16.994;2022-12-11T08:41:27;6.93;;;1.73;;
75628;SDS011;64213;46.452;16.994;2022-12-11T08:44:30;5.68;;;1.45;;
75628;SDS011;64213;46.452;16.994;2022-12-11T08:47:32;11.67;;;4.87;;
75628;SDS011;64213;46.452;16.994;2022-12-11T08:50:38;7.37;;;2.10;;
75628;SDS011;64213;46.452;16.994;2022-12-11T08:53:40;7.20;;;2.00;;
75628;SDS011;64213;46.452;16.994;2022-12-11T08:56:42;9.15;;;2.22;;
75628;SDS011;64213;46.452;16.994;2022-12-11T08:59:45;8.35;;;2.47;;
75628;SDS011;64213;46.452;16.994;2022-12-11T09:02:47;9.53;;;2.30;;
75628;SDS011;64213;46.452;16.994;2022-12-11T09:05:49;8.20;;;2.63;;
75628;SDS011;64213;46.452;16.994;2022-12-11T09:08:52;8.55;;;2.45;;
75628;SDS011;64213;46.452;16.994;2022-12-11T09:11:55;9.65;;;2.25;;
75628;SDS011;64213;46.452;16.994;2022-12-11T09:14:57;8.10;;;2.45;;
75628;SDS011;64213;46.452;16.994;2022-12-11T09:17:59;6.03;;;1.97;;
75628;SDS011;64213;46.452;16.994;2022-12-11T09:21:02;9.73;;;3.03;;
75628;SDS011;64213;46.452;16.994;2022-12-11T09:24:10;9.82;;;2.40;;
75628;SDS011;64213;46.452;16.994;2022-12-11T09:27:13;10.98;;;3.90;;
75628;SDS011;64213;46.452;16.994;2022-12-11T09:30:15;12.57;;;4.75;;
75628;SDS011;64213;46.452;16.994;2022-12-11T09:33:17;10.83;;;3.50;;
75628;SDS011;64213;46.452;16.994;2022-12-11T09:36:19;10.27;;;2.70;;
75628;SDS011;64213;46.452;16.994;2022-12-11T09:39:21;8.27;;;2.17;;
75628;SDS011;64213;46.452;16.994;2022-12-11T09:42:25;7.68;;;2.08;;
75628;SDS011;64213;46.452;16.994;2022-12-11T09:45:39;8.15;;;1.40;;
75628;SDS011;64213;46.452;16.994;2022-12-11T09:48:42;9.40;;;2.50;;
75628;SDS011;64213;46.452;16.994;2022-12-11T09:51:52;6.17;;;2.23;;
75628;SDS011;64213;46.452;16.994;2022-12-11T09:55:11;8.07;;;2.25;;
75628;SDS011;64213;46.452;16.994;2022-12-11T10:01:51;6.43;;;1.70;;
75628;SDS011;64213;46.452;16.994;2022-12-11T10:08:31;8.47;;;2.37;;
75628;SDS011;64213;46.452;16.994;2022-12-11T10:18:36;5.07;;;1.33;;
75628;SDS011;64213;46.452;16.994;2022-12-11T10:21:44;7.30;;;2.13;;
75628;SDS011;64213;46.452;16.994;2022-12-11T10:24:54;6.67;;;1.77;;
75628;SDS011;64213;46.452;16.994;2022-12-11T10:28:14;9.68;;;3.20;;
75628;SDS011;64213;46.452;16.994;2022-12-11T10:34:41;9.82;;;3.08;;
75628;SDS011;64213;46.452;16.994;2022-12-11T10:37:48;8.43;;;2.83;;
75628;SDS011;64213;46.452;16.994;2022-12-11T10:40:53;10.40;;;2.73;;
75628;SDS011;64213;46.452;16.994;2022-12-11T10:43:57;9.02;;;2.83;;
75628;SDS011;64213;46.452;16.994;2022-12-11T10:47:12;13.10;;;2.60;;
75628;SDS011;64213;46.452;16.994;2022-12-11T10:50:23;9.57;;;2.87;;
75628;SDS011;64213;46.452;16.994;2022-12-11T10:53:26;7.37;;;2.17;;
75628;SDS011;64213;46.452;16.994;2022-12-11T10:56:31;6.33;;;1.70;;
75628;SDS011;64213;46.452;16.994;2022-12-11T10:59:36;9.40;;;2.75;;
75628;SDS011;64213;46.452;16.994;2022-12-11T11:02:41;7.68;;;2.20;;
75628;SDS011;64213;46.452;16.994;2022-12-11T11:05:46;7.78;;;2.37;;
75628;SDS011;64213;46.452;16.994;2022-12-11T11:08:57;5.53;;;1.40;;
75628;SDS011;64213;46.452;16.994;2022-12-11T11:12:01;9.13;;;3.27;;
75628;SDS011;64213;46.452;16.994;2022-12-11T11:18:18;11.30;;;3.42;;
75628;SDS011;64213;46.452;16.994;2022-12-11T11:21:27;7.12;;;2.37;;
75628;SDS011;64213;46.452;16.994;2022-12-11T11:27:48;8.17;;;1.90;;
75628;SDS011;64213;46.452;16.994;2022-12-11T11:30:57;10.07;;;3.83;;
75628;SDS011;64213;46.452;16.994;2022-12-11T11:34:13;11.10;;;4.50;;
75628;SDS011;64213;46.452;16.994;2022-12-11T11:37:25;11.98;;;3.03;;
75628;SDS011;64213;46.452;16.994;2022-12-11T11:40:45;9.47;;;2.70;;
75628;SDS011;64213;46.452;16.994;2022-12-11T11:43:52;5.17;;;1.17;;
75628;SDS011;64213;46.452;16.994;2022-12-11T11:47:02;5.80;;;1.48;;
75628;SDS011;64213;46.452;16.994;2022-12-11T11:50:14;8.38;;;2.37;;
75628;SDS011;64213;46.452;16.994;2022-12-11T11:53:28;6.43;;;1.90;;
75628;SDS011;64213;46.452;16.994;2022-12-11T11:56:34;9.00;;;2.60;;
75628;SDS011;64213;46.452;16.994;2022-12-11T11:59:39;9.43;;;2.67;;
75628;SDS011;64213;46.452;16.994;2022-12-11T12:02:46;11.63;;;2.47;;
75628;SDS011;64213;46.452;16.994;2022-12-11T12:05:53;9.70;;;2.70;;
75628;SDS011;64213;46.452;16.994;2022-12-11T12:09:10;8.05;;;2.35;;
75628;SDS011;64213;46.452;16.994;2022-12-11T12:12:31;8.80;;;2.77;;
75628;SDS011;64213;46.452;16.994;2022-12-11T12:15:42;9.57;;;2.97;;
75628;SDS011;64213;46.452;16.994;2022-12-11T12:32:27;8.63;;;2.47;;
75628;SDS011;64213;46.452;16.994;2022-12-11T12:35:48;8.13;;;2.10;;
75628;SDS011;64213;46.452;16.994;2022-12-11T12:38:59;7.97;;;2.03;;
75628;SDS011;64213;46.452;16.994;2022-12-11T12:42:23;7.75;;;2.30;;
75628;SDS011;64213;46.452;16.994;2022-12-11T12:45:59;6.67;;;1.90;;
75628;SDS011;64213;46.452;16.994;2022-12-11T12:49:11;8.90;;;2.73;;
75628;SDS011;64213;46.452;16.994;2022-12-11T12:52:19;6.03;;;1.75;;
75628;SDS011;64213;46.452;16.994;2022-12-11T12:55:27;9.57;;;2.37;;
75628;SDS011;64213;46.452;16.994;2022-12-11T13:01:34;7.97;;;2.43;;
75628;SDS011;64213;46.452;16.994;2022-12-11T13:04:40;5.00;;;1.30;;
75628;SDS011;64213;46.452;16.994;2022-12-11T13:08:00;7.05;;;2.17;;
75628;SDS011;64213;46.452;16.994;2022-12-11T13:11:05;7.80;;;2.05;;
75628;SDS011;64213;46.452;16.994;2022-12-11T13:20:24;7.30;;;2.03;;
75628;SDS011;64213;46.452;16.994;2022-12-11T13:23:32;8.00;;;2.45;;
75628;SDS011;64213;46.452;16.994;2022-12-11T13:26:35;9.30;;;2.42;;
75628;SDS011;64213;46.452;16.994;2022-12-11T13:29:38;8.93;;;2.50;;
75628;SDS011;64213;46.452;16.994;2022-12-11T13:33:05;8.33;;;2.83;;
75628;SDS011;64213;46.452;16.994;2022-12-11T13:36:28;5.90;;;1.50;;
75628;SDS011;64213;46.452;16.994;2022-12-11T13:39:36;8.45;;;3.05;;
75628;SDS011;64213;46.452;16.994;2022-12-11T13:46:01;10.57;;;3.53;;
75628;SDS011;64213;46.452;16.994;2022-12-11T13:49:06;7.97;;;2.33;;
75628;SDS011;64213;46.452;16.994;2022-12-11T13:52:20;6.53;;;1.70;;
75628;SDS011;64213;46.452;16.994;2022-12-11T13:55:28;9.10;;;2.10;;
75628;SDS011;64213;46.452;16.994;2022-12-11T13:58:33;4.47;;;1.20;;
75628;SDS011;64213;46.452;16.994;2022-12-11T14:01:38;12.20;;;4.65;;
75628;SDS011;64213;46.452;16.994;2022-12-11T14:04:40;11.00;;;4.07;;
75628;SDS011;64213;46.452;16.994;2022-12-11T14:07:50;14.47;;;4.53;;
75628;SDS011;64213;46.452;16.994;2022-12-11T14:10:55;12.45;;;4.78;;
75628;SDS011;64213;46.452;16.994;2022-12-11T14:13:58;11.65;;;3.47;;
75628;SDS011;64213;46.452;16.994;2022-12-11T14:17:04;8.80;;;2.53;;
75628;SDS011;64213;46.452;16.994;2022-12-11T14:20:06;11.47;;;3.57;;
75628;SDS011;64213;46.452;16.994;2022-12-11T14:23:20;5.57;;;1.83;;
75628;SDS011;64213;46.452;16.994;2022-12-11T14:29:31;9.65;;;3.15;;
75628;SDS011;64213;46.452;16.994;2022-12-11T14:32:37;10.93;;;2.97;;
75628;SDS011;64213;46.452;16.994;2022-12-11T14:35:45;9.93;;;2.63;;
75628;SDS011;64213;46.452;16.994;2022-12-11T14:39:11;8.30;;;2.77;;
75628;SDS011;64213;46.452;16.994;2022-12-11T14:42:22;11.60;;;3.00;;
75628;SDS011;64213;46.452;16.994;2022-12-11T14:45:37;8.43;;;2.80;;
75628;SDS011;64213;46.452;16.994;2022-12-11T14:48:43;9.27;;;2.72;;
75628;SDS011;64213;46.452;16.994;2022-12-11T14:52:02;9.30;;;3.03;;
75628;SDS011;64213;46.452;16.994;2022-12-11T14:55:06;12.13;;;4.20;;
75628;SDS011;64213;46.452;16.994;2022-12-11T14:58:24;8.60;;;1.77;;
75628;SDS011;64213;46.452;16.994;2022-12-11T15:01:31;7.93;;;2.03;;
75628;SDS011;64213;46.452;16.994;2022-12-11T15:04:35;10.10;;;3.20;;
75628;SDS011;64213;46.452;16.994;2022-12-11T15:07:37;9.27;;;3.20;;
75628;SDS011;64213;46.452;16.994;2022-12-11T15:10:58;8.47;;;2.77;;
75628;SDS011;64213;46.452;16.994;2022-12-11T15:14:12;8.98;;;2.50;;
75628;SDS011;64213;46.452;16.994;2022-12-11T15:17:17;11.85;;;3.80;;
75628;SDS011;64213;46.452;16.994;2022-12-11T15:20:26;7.03;;;2.25;;
75628;SDS011;64213;46.452;16.994;2022-12-11T15:23:30;9.07;;;3.30;;
75628;SDS011;64213;46.452;16.994;2022-12-11T15:26:36;6.93;;;1.80;;
75628;SDS011;64213;46.452;16.994;2022-12-11T15:29:41;5.28;;;1.55;;
75628;SDS011;64213;46.452;16.994;2022-12-11T15:32:43;5.85;;;1.48;;
75628;SDS011;64213;46.452;16.994;2022-12-11T15:35:53;7.37;;;2.78;;
75628;SDS011;64213;46.452;16.994;2022-12-11T15:39:02;7.53;;;2.17;;
75628;SDS011;64213;46.452;16.994;2022-12-11T15:42:06;7.43;;;1.90;;
75628;SDS011;64213;46.452;16.994;2022-12-11T15:45:19;10.25;;;3.37;;
75628;SDS011;64213;46.452;16.994;2022-12-11T15:48:23;5.80;;;1.73;;
75628;SDS011;64213;46.452;16.994;2022-12-11T15:51:25;5.35;;;1.35;;
75628;SDS011;64213;46.452;16.994;2022-12-11T15:54:28;9.70;;;2.80;;
75628;SDS011;64213;46.452;16.994;2022-12-11T15:57:31;9.50;;;2.53;;
75628;SDS011;64213;46.452;16.994;2022-12-11T16:00:34;7.22;;;1.95;;
75628;SDS011;64213;46.452;16.994;2022-12-11T16:03:36;4.85;;;0.68;;
75628;SDS011;64213;46.452;16.994;2022-12-11T16:06:39;6.20;;;1.33;;
75628;SDS011;64213;46.452;16.994;2022-12-11T16:09:46;1.77;;;0.33;;
75628;SDS011;64213;46.452;16.994;2022-12-11T16:12:49;6.40;;;1.47;;
75628;SDS011;64213;46.452;16.994;2022-12-11T16:15:51;7.37;;;1.98;;
75628;SDS011;64213;46.452;16.994;2022-12-11T16:18:55;8.90;;;2.70;;
75628;SDS011;64213;46.452;16.994;2022-12-11T16:21:58;9.07;;;2.80;;
75628;SDS011;64213;46.452;16.994;2022-12-11T16:25:00;8.80;;;2.93;;
75628;SDS011;64213;46.452;16.994;2022-12-11T16:28:03;6.27;;;1.83;;
75628;SDS011;64213;46.452;16.994;2022-12-11T16:31:13;6.65;;;2.47;;
75628;SDS011;64213;46.452;16.994;2022-12-11T16:34:16;8.15;;;2.25;;
75628;SDS011;64213;46.452;16.994;2022-12-11T16:37:19;8.65;;;2.42;;
75628;SDS011;64213;46.452;16.994;2022-12-11T16:40:24;7.77;;;2.37;;
75628;SDS011;64213;46.452;16.994;2022-12-11T16:43:27;6.83;;;1.93;;
75628;SDS011;64213;46.452;16.994;2022-12-11T16:46:30;9.95;;;2.42;;
75628;SDS011;64213;46.452;16.994;2022-12-11T16:49:33;8.38;;;1.87;;
75628;SDS011;64213;46.452;16.994;2022-12-11T16:52:36;11.95;;;4.20;;
75628;SDS011;64213;46.452;16.994;2022-12-11T16:55:38;9.07;;;2.80;;
75628;SDS011;64213;46.452;16.994;2022-12-11T16:58:41;11.53;;;3.67;;
75628;SDS011;64213;46.452;16.994;2022-12-11T17:01:44;6.87;;;2.08;;
75628;SDS011;64213;46.452;16.994;2022-12-11T17:04:46;6.78;;;1.80;;
75628;SDS011;64213;46.452;16.994;2022-12-11T17:07:54;8.63;;;2.33;;
75628;SDS011;64213;46.452;16.994;2022-12-11T17:10:57;7.43;;;2.47;;
75628;SDS011;64213;46.452;16.994;2022-12-11T17:13:59;11.20;;;3.60;;
75628;SDS011;64213;46.452;16.994;2022-12-11T17:17:02;8.07;;;2.22;;
75628;SDS011;64213;46.452;16.994;2022-12-11T17:20:04;10.40;;;4.20;;
75628;SDS011;64213;46.452;16.994;2022-12-11T17:23:08;14.10;;;3.62;;
75628;SDS011;64213;46.452;16.994;2022-12-11T17:26:14;12.50;;;3.90;;
75628;SDS011;64213;46.452;16.994;2022-12-11T17:29:18;12.03;;;4.37;;
75628;SDS011;64213;46.452;16.994;2022-12-11T17:32:22;8.95;;;2.62;;
75628;SDS011;64213;46.452;16.994;2022-12-11T17:35:24;9.50;;;2.80;;
75628;SDS011;64213;46.452;16.994;2022-12-11T17:38:27;11.00;;;3.08;;
75628;SDS011;64213;46.452;16.994;2022-12-11T17:41:32;13.47;;;4.03;;
75628;SDS011;64213;46.452;16.994;2022-12-11T17:44:34;8.90;;;2.57;;
75628;SDS011;64213;46.452;16.994;2022-12-11T17:47:37;11.02;;;4.05;;
75628;SDS011;64213;46.452;16.994;2022-12-11T17:50:41;8.98;;;2.83;;
75628;SDS011;64213;46.452;16.994;2022-12-11T17:53:44;6.82;;;1.90;;
75628;SDS011;64213;46.452;16.994;2022-12-11T17:56:46;11.60;;;3.40;;
75628;SDS011;64213;46.452;16.994;2022-12-11T17:59:52;5.90;;;1.93;;
75628;SDS011;64213;46.452;16.994;2022-12-11T18:02:55;8.57;;;2.17;;
75628;SDS011;64213;46.452;16.994;2022-12-11T18:06:01;8.57;;;2.17;;
75628;SDS011;64213;46.452;16.994;2022-12-11T18:09:06;7.55;;;2.55;;
75628;SDS011;64213;46.452;16.994;2022-12-11T18:12:09;10.57;;;3.50;;
75628;SDS011;64213;46.452;16.994;2022-12-11T18:15:12;7.93;;;2.67;;
75628;SDS011;64213;46.452;16.994;2022-12-11T18:18:15;11.98;;;2.87;;
75628;SDS011;64213;46.452;16.994;2022-12-11T18:21:19;6.50;;;1.90;;
75628;SDS011;64213;46.452;16.994;2022-12-11T18:24:23;5.32;;;1.48;;
75628;SDS011;64213;46.452;16.994;2022-12-11T18:27:32;8.10;;;2.20;;
75628;SDS011;64213;46.452;16.994;2022-12-11T18:30:36;6.20;;;2.23;;
75628;SDS011;64213;46.452;16.994;2022-12-11T18:33:40;7.00;;;2.10;;
75628;SDS011;64213;46.452;16.994;2022-12-11T18:36:44;8.80;;;2.67;;
75628;SDS011;64213;46.452;16.994;2022-12-11T18:39:47;11.07;;;4.03;;
75628;SDS011;64213;46.452;16.994;2022-12-11T18:42:50;7.90;;;2.77;;
75628;SDS011;64213;46.452;16.994;2022-12-11T18:45:53;6.10;;;1.63;;
75628;SDS011;64213;46.452;16.994;2022-12-11T18:48:56;10.25;;;4.75;;
75628;SDS011;64213;46.452;16.994;2022-12-11T18:51:59;9.30;;;1.83;;
75628;SDS011;64213;46.452;16.994;2022-12-11T18:55:02;4.65;;;1.20;;
75628;SDS011;64213;46.452;16.994;2022-12-11T18:58:06;7.50;;;2.47;;
75628;SDS011;64213;46.452;16.994;2022-12-11T19:01:10;7.03;;;2.17;;
75628;SDS011;64213;46.452;16.994;2022-12-11T19:04:17;11.12;;;3.87;;
75628;SDS011;64213;46.452;16.994;2022-12-11T19:07:20;4.18;;;0.95;;
75628;SDS011;64213;46.452;16.994;2022-12-11T19:10:27;10.27;;;3.33;;
75628;SDS011;64213;46.452;16.994;2022-12-11T19:13:31;6.83;;;1.77;;